sensor_id;sensor_type;location;lat;lon;timestamp;P1;durP1;ratioP1;P2;durP2;ratioP2
10005;SDS011;5042;42.626;23.382;2023-07-02T00:01:45;6.72;;;4.38;;
10005;SDS011;5042;42.626;23.382;2023-07-02T00:04:13;6.72;;;4.10;;
10005;SDS011;5042;42.626;23.382;2023-07-02T00:06:41;6.47;;;4.10;;
10005;SDS011;5042;42.626;23.382;2023-07-02T00:09:08;7.13;;;4.45;;
10005;SDS011;5042;42.626;23.382;2023-07-02T00:11:36;6.63;;;4.18;;
10005;SDS011;5042;42.626;23.382;2023-07-02T00:14:03;6.18;;;4.25;;
10005;SDS011;5042;42.626;23.382;2023-07-02T00:16:31;5.80;;;3.90;;
10005;SDS011;5042;42.626;23.382;2023-07-02T00:18:58;6.35;;;4.15;;
10005;SDS011;5042;42.626;23.382;2023-07-02T00:21:25;6.72;;;4.22;;
10005;SDS011;5042;42.626;23.382;2023-07-02T00:23:54;4.90;;;4.00;;
10005;SDS011;5042;42.626;23.382;2023-07-02T00:26:22;5.60;;;3.88;;
10005;SDS011;5042;42.626;23.382;2023-07-02T00:28:49;5.45;;;4.03;;
10005;SDS011;5042;42.626;23.382;2023-07-02T00:31:16;5.65;;;4.18;;
10005;SDS011;5042;42.626;23.382;2023-07-02T00:33:44;5.70;;;4.22;;
10005;SDS011;5042;42.626;23.382;2023-07-02T00:36:11;5.43;;;4.15;;
10005;SDS011;5042;42.626;23.382;2023-07-02T00:38:40;6.05;;;4.22;;
10005;SDS011;5042;42.626;23.382;2023-07-02T00:41:07;7.68;;;4.47;;
10005;SDS011;5042;42.626;23.382;2023-07-02T00:43:34;5.68;;;4.10;;
10005;SDS011;5042;42.626;23.382;2023-07-02T00:46:01;6.43;;;4.07;;
10005;SDS011;5042;42.626;23.382;2023-07-02T00:48:30;6.25;;;4.40;;
10005;SDS011;5042;42.626;23.382;2023-07-02T00:50:59;5.30;;;4.00;;
10005;SDS011;5042;42.626;23.382;2023-07-02T00:53:26;4.57;;;3.88;;
10005;SDS011;5042;42.626;23.382;2023-07-02T00:55:53;7.38;;;4.28;;
10005;SDS011;5042;42.626;23.382;2023-07-02T00:58:20;5.50;;;3.67;;
10005;SDS011;5042;42.626;23.382;2023-07-02T01:00:47;5.40;;;3.92;;
10005;SDS011;5042;42.626;23.382;2023-07-02T01:03:14;7.80;;;4.25;;
10005;SDS011;5042;42.626;23.382;2023-07-02T01:05:40;6.63;;;4.47;;
10005;SDS011;5042;42.626;23.382;2023-07-02T01:08:09;5.85;;;4.50;;
10005;SDS011;5042;42.626;23.382;2023-07-02T01:10:37;8.75;;;5.07;;
10005;SDS011;5042;42.626;23.382;2023-07-02T01:13:05;6.68;;;4.88;;
10005;SDS011;5042;42.626;23.382;2023-07-02T01:15:36;7.75;;;5.18;;
10005;SDS011;5042;42.626;23.382;2023-07-02T01:18:03;6.45;;;5.00;;
10005;SDS011;5042;42.626;23.382;2023-07-02T01:20:32;10.60;;;5.00;;
10005;SDS011;5042;42.626;23.382;2023-07-02T01:23:01;9.98;;;5.75;;
10005;SDS011;5042;42.626;23.382;2023-07-02T01:25:28;7.70;;;5.60;;
10005;SDS011;5042;42.626;23.382;2023-07-02T01:27:55;8.45;;;5.60;;
10005;SDS011;5042;42.626;23.382;2023-07-02T01:30:23;6.60;;;4.50;;
10005;SDS011;5042;42.626;23.382;2023-07-02T01:32:51;6.63;;;4.63;;
10005;SDS011;5042;42.626;23.382;2023-07-02T01:35:18;6.05;;;4.80;;
10005;SDS011;5042;42.626;23.382;2023-07-02T01:37:46;5.80;;;4.65;;
10005;SDS011;5042;42.626;23.382;2023-07-02T01:40:13;11.57;;;5.03;;
10005;SDS011;5042;42.626;23.382;2023-07-02T01:42:40;6.95;;;4.68;;
10005;SDS011;5042;42.626;23.382;2023-07-02T01:45:07;6.53;;;4.18;;
10005;SDS011;5042;42.626;23.382;2023-07-02T01:47:34;6.90;;;4.35;;
10005;SDS011;5042;42.626;23.382;2023-07-02T01:50:02;6.82;;;4.57;;
10005;SDS011;5042;42.626;23.382;2023-07-02T01:52:30;8.35;;;4.28;;
10005;SDS011;5042;42.626;23.382;2023-07-02T01:55:00;7.13;;;4.72;;
10005;SDS011;5042;42.626;23.382;2023-07-02T01:57:27;5.70;;;4.13;;
10005;SDS011;5042;42.626;23.382;2023-07-02T01:59:55;5.65;;;4.00;;
10005;SDS011;5042;42.626;23.382;2023-07-02T02:02:22;7.47;;;4.55;;
10005;SDS011;5042;42.626;23.382;2023-07-02T02:04:49;5.70;;;4.45;;
10005;SDS011;5042;42.626;23.382;2023-07-02T02:07:16;7.13;;;4.85;;
10005;SDS011;5042;42.626;23.382;2023-07-02T02:09:42;7.15;;;4.65;;
10005;SDS011;5042;42.626;23.382;2023-07-02T02:12:10;6.55;;;4.93;;
10005;SDS011;5042;42.626;23.382;2023-07-02T02:14:39;6.95;;;5.05;;
10005;SDS011;5042;42.626;23.382;2023-07-02T02:17:06;8.55;;;4.80;;
10005;SDS011;5042;42.626;23.382;2023-07-02T02:19:33;8.18;;;5.05;;
10005;SDS011;5042;42.626;23.382;2023-07-02T02:22:00;6.28;;;4.95;;
10005;SDS011;5042;42.626;23.382;2023-07-02T02:24:26;7.43;;;5.13;;
10005;SDS011;5042;42.626;23.382;2023-07-02T02:26:53;7.93;;;5.00;;
10005;SDS011;5042;42.626;23.382;2023-07-02T02:29:21;7.60;;;5.10;;
10005;SDS011;5042;42.626;23.382;2023-07-02T02:31:48;7.60;;;5.30;;
10005;SDS011;5042;42.626;23.382;2023-07-02T02:34:15;7.82;;;5.15;;
10005;SDS011;5042;42.626;23.382;2023-07-02T02:36:41;10.38;;;5.43;;
10005;SDS011;5042;42.626;23.382;2023-07-02T02:39:08;7.82;;;5.35;;
10005;SDS011;5042;42.626;23.382;2023-07-02T02:41:35;6.28;;;4.97;;
10005;SDS011;5042;42.626;23.382;2023-07-02T02:44:02;8.88;;;5.05;;
10005;SDS011;5042;42.626;23.382;2023-07-02T02:46:30;7.45;;;4.95;;
10005;SDS011;5042;42.626;23.382;2023-07-02T02:48:57;7.13;;;5.03;;
10005;SDS011;5042;42.626;23.382;2023-07-02T02:51:24;7.63;;;5.20;;
10005;SDS011;5042;42.626;23.382;2023-07-02T02:53:50;8.18;;;5.32;;
10005;SDS011;5042;42.626;23.382;2023-07-02T02:56:17;9.52;;;5.20;;
10005;SDS011;5042;42.626;23.382;2023-07-02T02:58:44;12.43;;;5.65;;
10005;SDS011;5042;42.626;23.382;2023-07-02T03:01:11;7.95;;;5.35;;
10005;SDS011;5042;42.626;23.382;2023-07-02T03:03:39;8.45;;;5.50;;
10005;SDS011;5042;42.626;23.382;2023-07-02T03:06:10;9.85;;;5.50;;
10005;SDS011;5042;42.626;23.382;2023-07-02T03:08:39;7.13;;;5.20;;
10005;SDS011;5042;42.626;23.382;2023-07-02T03:11:06;6.85;;;5.32;;
10005;SDS011;5042;42.626;23.382;2023-07-02T03:13:32;8.07;;;5.20;;
10005;SDS011;5042;42.626;23.382;2023-07-02T03:15:59;9.07;;;5.50;;
10005;SDS011;5042;42.626;23.382;2023-07-02T03:18:26;8.98;;;5.18;;
10005;SDS011;5042;42.626;23.382;2023-07-02T03:20:54;8.18;;;5.75;;
10005;SDS011;5042;42.626;23.382;2023-07-02T03:23:21;7.55;;;5.40;;
10005;SDS011;5042;42.626;23.382;2023-07-02T03:25:48;8.65;;;5.18;;
10005;SDS011;5042;42.626;23.382;2023-07-02T03:28:14;7.80;;;5.57;;
10005;SDS011;5042;42.626;23.382;2023-07-02T03:30:41;8.25;;;5.25;;
10005;SDS011;5042;42.626;23.382;2023-07-02T03:33:08;6.50;;;5.00;;
10005;SDS011;5042;42.626;23.382;2023-07-02T03:35:36;6.57;;;5.10;;
10005;SDS011;5042;42.626;23.382;2023-07-02T03:38:04;8.57;;;4.88;;
10005;SDS011;5042;42.626;23.382;2023-07-02T03:40:31;6.45;;;4.97;;
10005;SDS011;5042;42.626;23.382;2023-07-02T03:42:58;5.93;;;5.05;;
10005;SDS011;5042;42.626;23.382;2023-07-02T03:45:25;8.60;;;4.82;;
10005;SDS011;5042;42.626;23.382;2023-07-02T03:47:51;9.30;;;5.47;;
10005;SDS011;5042;42.626;23.382;2023-07-02T03:50:18;8.55;;;5.95;;
10005;SDS011;5042;42.626;23.382;2023-07-02T03:52:45;6.70;;;5.28;;
10005;SDS011;5042;42.626;23.382;2023-07-02T03:55:13;8.25;;;5.05;;
10005;SDS011;5042;42.626;23.382;2023-07-02T03:57:40;9.00;;;4.90;;
10005;SDS011;5042;42.626;23.382;2023-07-02T04:00:07;6.40;;;4.80;;
10005;SDS011;5042;42.626;23.382;2023-07-02T04:02:36;8.38;;;4.63;;
10005;SDS011;5042;42.626;23.382;2023-07-02T04:05:04;6.93;;;5.28;;
10005;SDS011;5042;42.626;23.382;2023-07-02T04:07:32;8.07;;;4.80;;
10005;SDS011;5042;42.626;23.382;2023-07-02T04:09:58;7.05;;;5.35;;
10005;SDS011;5042;42.626;23.382;2023-07-02T04:12:26;7.35;;;5.35;;
10005;SDS011;5042;42.626;23.382;2023-07-02T04:14:53;19.70;;;12.52;;
10005;SDS011;5042;42.626;23.382;2023-07-02T04:17:20;9.88;;;6.43;;
10005;SDS011;5042;42.626;23.382;2023-07-02T04:19:47;7.10;;;5.50;;
10005;SDS011;5042;42.626;23.382;2023-07-02T04:22:14;8.48;;;5.40;;
10005;SDS011;5042;42.626;23.382;2023-07-02T04:24:41;7.47;;;5.65;;
10005;SDS011;5042;42.626;23.382;2023-07-02T04:27:07;8.50;;;5.55;;
10005;SDS011;5042;42.626;23.382;2023-07-02T04:29:36;9.40;;;6.30;;
10005;SDS011;5042;42.626;23.382;2023-07-02T04:32:02;9.63;;;6.40;;
10005;SDS011;5042;42.626;23.382;2023-07-02T04:34:30;12.93;;;6.38;;
10005;SDS011;5042;42.626;23.382;2023-07-02T04:36:56;9.80;;;5.93;;
10005;SDS011;5042;42.626;23.382;2023-07-02T04:39:23;9.85;;;6.30;;
10005;SDS011;5042;42.626;23.382;2023-07-02T04:41:50;10.38;;;6.70;;
10005;SDS011;5042;42.626;23.382;2023-07-02T04:44:17;9.82;;;6.13;;
10005;SDS011;5042;42.626;23.382;2023-07-02T04:46:48;9.98;;;6.60;;
10005;SDS011;5042;42.626;23.382;2023-07-02T04:49:15;7.05;;;5.65;;
10005;SDS011;5042;42.626;23.382;2023-07-02T04:51:41;8.15;;;6.18;;
10005;SDS011;5042;42.626;23.382;2023-07-02T04:54:08;9.93;;;5.95;;
10005;SDS011;5042;42.626;23.382;2023-07-02T04:56:35;11.15;;;6.95;;
10005;SDS011;5042;42.626;23.382;2023-07-02T04:59:02;11.63;;;6.28;;
10005;SDS011;5042;42.626;23.382;2023-07-02T05:01:28;8.20;;;6.30;;
10005;SDS011;5042;42.626;23.382;2023-07-02T05:03:57;10.77;;;6.07;;
10005;SDS011;5042;42.626;23.382;2023-07-02T05:06:23;6.88;;;5.53;;
10005;SDS011;5042;42.626;23.382;2023-07-02T05:08:50;9.70;;;6.55;;
10005;SDS011;5042;42.626;23.382;2023-07-02T05:11:17;10.05;;;6.63;;
10005;SDS011;5042;42.626;23.382;2023-07-02T05:13:44;9.48;;;6.57;;
10005;SDS011;5042;42.626;23.382;2023-07-02T05:16:11;12.13;;;6.72;;
10005;SDS011;5042;42.626;23.382;2023-07-02T05:18:38;7.82;;;6.20;;
10005;SDS011;5042;42.626;23.382;2023-07-02T05:21:06;8.10;;;6.70;;
10005;SDS011;5042;42.626;23.382;2023-07-02T05:23:33;8.50;;;6.65;;
10005;SDS011;5042;42.626;23.382;2023-07-02T05:26:00;8.68;;;6.60;;
10005;SDS011;5042;42.626;23.382;2023-07-02T05:28:27;9.10;;;6.60;;
10005;SDS011;5042;42.626;23.382;2023-07-02T05:30:54;10.40;;;6.45;;
10005;SDS011;5042;42.626;23.382;2023-07-02T05:33:21;9.73;;;6.65;;
10005;SDS011;5042;42.626;23.382;2023-07-02T05:35:48;10.43;;;6.97;;
10005;SDS011;5042;42.626;23.382;2023-07-02T05:38:17;9.02;;;6.13;;
10005;SDS011;5042;42.626;23.382;2023-07-02T05:40:44;10.93;;;7.13;;
10005;SDS011;5042;42.626;23.382;2023-07-02T05:43:11;9.57;;;6.53;;
10005;SDS011;5042;42.626;23.382;2023-07-02T05:45:38;11.15;;;6.72;;
10005;SDS011;5042;42.626;23.382;2023-07-02T05:48:05;8.65;;;6.43;;
10005;SDS011;5042;42.626;23.382;2023-07-02T05:50:32;8.80;;;6.55;;
10005;SDS011;5042;42.626;23.382;2023-07-02T05:52:59;9.82;;;7.05;;
10005;SDS011;5042;42.626;23.382;2023-07-02T05:55:27;12.15;;;7.15;;
10005;SDS011;5042;42.626;23.382;2023-07-02T05:57:54;8.68;;;6.68;;
10005;SDS011;5042;42.626;23.382;2023-07-02T06:00:22;9.13;;;6.40;;
10005;SDS011;5042;42.626;23.382;2023-07-02T06:02:49;9.55;;;7.03;;
10005;SDS011;5042;42.626;23.382;2023-07-02T06:05:16;10.40;;;6.88;;
10005;SDS011;5042;42.626;23.382;2023-07-02T06:07:42;10.98;;;6.82;;
10005;SDS011;5042;42.626;23.382;2023-07-02T06:10:09;9.80;;;6.60;;
10005;SDS011;5042;42.626;23.382;2023-07-02T06:12:37;9.65;;;6.68;;
10005;SDS011;5042;42.626;23.382;2023-07-02T06:15:05;10.13;;;6.28;;
10005;SDS011;5042;42.626;23.382;2023-07-02T06:17:32;12.18;;;6.25;;
10005;SDS011;5042;42.626;23.382;2023-07-02T06:19:59;8.77;;;5.65;;
10005;SDS011;5042;42.626;23.382;2023-07-02T06:22:26;9.20;;;5.68;;
10005;SDS011;5042;42.626;23.382;2023-07-02T06:24:52;9.55;;;5.57;;
10005;SDS011;5042;42.626;23.382;2023-07-02T06:27:19;6.60;;;5.00;;
10005;SDS011;5042;42.626;23.382;2023-07-02T06:29:48;7.15;;;5.20;;
10005;SDS011;5042;42.626;23.382;2023-07-02T06:32:14;8.23;;;4.78;;
10005;SDS011;5042;42.626;23.382;2023-07-02T06:34:41;6.78;;;4.70;;
10005;SDS011;5042;42.626;23.382;2023-07-02T06:37:08;7.47;;;5.40;;
10005;SDS011;5042;42.626;23.382;2023-07-02T06:39:35;8.90;;;5.38;;
10005;SDS011;5042;42.626;23.382;2023-07-02T06:42:02;6.50;;;4.68;;
10005;SDS011;5042;42.626;23.382;2023-07-02T06:44:29;7.90;;;5.00;;
10005;SDS011;5042;42.626;23.382;2023-07-02T06:46:57;8.05;;;4.70;;
10005;SDS011;5042;42.626;23.382;2023-07-02T06:49:23;7.85;;;4.95;;
10005;SDS011;5042;42.626;23.382;2023-07-02T06:51:50;8.18;;;5.03;;
10005;SDS011;5042;42.626;23.382;2023-07-02T06:54:17;7.75;;;4.68;;
10005;SDS011;5042;42.626;23.382;2023-07-02T06:56:44;6.22;;;4.60;;
10005;SDS011;5042;42.626;23.382;2023-07-02T06:59:10;6.30;;;4.88;;
10005;SDS011;5042;42.626;23.382;2023-07-02T07:01:37;8.43;;;5.15;;
10005;SDS011;5042;42.626;23.382;2023-07-02T07:04:05;5.97;;;4.32;;
10005;SDS011;5042;42.626;23.382;2023-07-02T07:06:32;8.73;;;5.45;;
10005;SDS011;5042;42.626;23.382;2023-07-02T07:08:59;6.38;;;5.10;;
10005;SDS011;5042;42.626;23.382;2023-07-02T07:11:25;5.72;;;5.05;;
10005;SDS011;5042;42.626;23.382;2023-07-02T07:13:52;9.13;;;5.13;;
10005;SDS011;5042;42.626;23.382;2023-07-02T07:16:19;6.68;;;4.70;;
10005;SDS011;5042;42.626;23.382;2023-07-02T07:18:46;7.10;;;4.90;;
10005;SDS011;5042;42.626;23.382;2023-07-02T07:21:14;5.97;;;4.75;;
10005;SDS011;5042;42.626;23.382;2023-07-02T07:23:41;7.53;;;5.13;;
10005;SDS011;5042;42.626;23.382;2023-07-02T07:26:07;9.13;;;6.20;;
10005;SDS011;5042;42.626;23.382;2023-07-02T07:28:34;7.38;;;4.97;;
10005;SDS011;5042;42.626;23.382;2023-07-02T07:31:01;6.40;;;4.70;;
10005;SDS011;5042;42.626;23.382;2023-07-02T07:33:28;9.02;;;4.80;;
10005;SDS011;5042;42.626;23.382;2023-07-02T07:35:55;7.95;;;4.93;;
10005;SDS011;5042;42.626;23.382;2023-07-02T07:38:23;7.22;;;4.25;;
10005;SDS011;5042;42.626;23.382;2023-07-02T07:40:49;6.20;;;4.78;;
10005;SDS011;5042;42.626;23.382;2023-07-02T07:43:16;6.72;;;4.43;;
10005;SDS011;5042;42.626;23.382;2023-07-02T07:45:43;6.57;;;4.35;;
10005;SDS011;5042;42.626;23.382;2023-07-02T07:48:10;6.43;;;4.53;;
10005;SDS011;5042;42.626;23.382;2023-07-02T07:50:36;6.45;;;4.68;;
10005;SDS011;5042;42.626;23.382;2023-07-02T07:53:03;6.75;;;4.72;;
10005;SDS011;5042;42.626;23.382;2023-07-02T07:55:31;5.90;;;4.75;;
10005;SDS011;5042;42.626;23.382;2023-07-02T07:57:58;6.00;;;4.80;;
10005;SDS011;5042;42.626;23.382;2023-07-02T08:00:25;6.68;;;4.30;;
10005;SDS011;5042;42.626;23.382;2023-07-02T08:02:52;6.35;;;3.92;;
10005;SDS011;5042;42.626;23.382;2023-07-02T08:05:20;4.95;;;3.63;;
10005;SDS011;5042;42.626;23.382;2023-07-02T08:07:47;5.93;;;4.47;;
10005;SDS011;5042;42.626;23.382;2023-07-02T08:10:14;5.47;;;3.80;;
10005;SDS011;5042;42.626;23.382;2023-07-02T08:12:42;6.03;;;4.65;;
10005;SDS011;5042;42.626;23.382;2023-07-02T08:15:09;5.00;;;4.00;;
10005;SDS011;5042;42.626;23.382;2023-07-02T08:17:36;4.28;;;3.40;;
10005;SDS011;5042;42.626;23.382;2023-07-02T08:20:03;5.13;;;4.40;;
10005;SDS011;5042;42.626;23.382;2023-07-02T08:22:34;6.88;;;4.30;;
10005;SDS011;5042;42.626;23.382;2023-07-02T08:25:01;6.82;;;4.28;;
10005;SDS011;5042;42.626;23.382;2023-07-02T08:27:27;5.00;;;4.13;;
10005;SDS011;5042;42.626;23.382;2023-07-02T08:29:56;6.63;;;4.28;;
10005;SDS011;5042;42.626;23.382;2023-07-02T08:32:24;5.05;;;4.22;;
10005;SDS011;5042;42.626;23.382;2023-07-02T08:34:51;7.18;;;4.43;;
10005;SDS011;5042;42.626;23.382;2023-07-02T08:37:18;6.82;;;4.35;;
10005;SDS011;5042;42.626;23.382;2023-07-02T08:39:48;6.28;;;3.70;;
10005;SDS011;5042;42.626;23.382;2023-07-02T08:42:15;3.80;;;3.17;;
10005;SDS011;5042;42.626;23.382;2023-07-02T08:44:43;5.45;;;4.07;;
10005;SDS011;5042;42.626;23.382;2023-07-02T08:47:14;7.63;;;4.68;;
10005;SDS011;5042;42.626;23.382;2023-07-02T08:49:41;4.88;;;3.85;;
10005;SDS011;5042;42.626;23.382;2023-07-02T08:52:08;5.25;;;4.07;;
10005;SDS011;5042;42.626;23.382;2023-07-02T08:54:35;7.40;;;4.53;;
10005;SDS011;5042;42.626;23.382;2023-07-02T08:57:03;4.85;;;3.80;;
10005;SDS011;5042;42.626;23.382;2023-07-02T08:59:30;12.13;;;4.25;;
10005;SDS011;5042;42.626;23.382;2023-07-02T09:01:57;4.40;;;3.22;;
10005;SDS011;5042;42.626;23.382;2023-07-02T09:04:25;5.70;;;3.60;;
10005;SDS011;5042;42.626;23.382;2023-07-02T09:07:02;5.53;;;3.60;;
10005;SDS011;5042;42.626;23.382;2023-07-02T09:09:30;4.75;;;3.70;;
10005;SDS011;5042;42.626;23.382;2023-07-02T09:11:57;5.90;;;4.13;;
10005;SDS011;5042;42.626;23.382;2023-07-02T09:14:24;6.22;;;3.90;;
10005;SDS011;5042;42.626;23.382;2023-07-02T09:17:01;5.68;;;4.13;;
10005;SDS011;5042;42.626;23.382;2023-07-02T09:19:30;5.45;;;3.97;;
10005;SDS011;5042;42.626;23.382;2023-07-02T09:21:58;5.03;;;3.95;;
10005;SDS011;5042;42.626;23.382;2023-07-02T09:24:26;5.53;;;4.40;;
10005;SDS011;5042;42.626;23.382;2023-07-02T09:26:54;4.40;;;3.95;;
10005;SDS011;5042;42.626;23.382;2023-07-02T09:29:22;5.57;;;4.10;;
10005;SDS011;5042;42.626;23.382;2023-07-02T09:31:50;4.85;;;3.95;;
10005;SDS011;5042;42.626;23.382;2023-07-02T09:34:17;7.28;;;4.40;;
10005;SDS011;5042;42.626;23.382;2023-07-02T09:36:45;4.80;;;4.30;;
10005;SDS011;5042;42.626;23.382;2023-07-02T09:39:12;5.38;;;3.72;;
10005;SDS011;5042;42.626;23.382;2023-07-02T09:41:41;6.43;;;4.28;;
10005;SDS011;5042;42.626;23.382;2023-07-02T09:44:08;6.55;;;4.43;;
10005;SDS011;5042;42.626;23.382;2023-07-02T09:46:36;7.72;;;5.90;;
10005;SDS011;5042;42.626;23.382;2023-07-02T09:49:04;5.25;;;4.45;;
10005;SDS011;5042;42.626;23.382;2023-07-02T09:51:33;6.65;;;4.57;;
10005;SDS011;5042;42.626;23.382;2023-07-02T09:54:02;8.30;;;5.00;;
10005;SDS011;5042;42.626;23.382;2023-07-02T09:56:28;5.63;;;4.22;;
10005;SDS011;5042;42.626;23.382;2023-07-02T09:58:55;7.68;;;4.88;;
10005;SDS011;5042;42.626;23.382;2023-07-02T10:01:22;5.07;;;3.70;;
10005;SDS011;5042;42.626;23.382;2023-07-02T10:03:49;5.28;;;4.30;;
10005;SDS011;5042;42.626;23.382;2023-07-02T10:06:16;6.15;;;4.60;;
10005;SDS011;5042;42.626;23.382;2023-07-02T10:08:52;6.25;;;4.68;;
10005;SDS011;5042;42.626;23.382;2023-07-02T10:11:20;5.85;;;3.67;;
10005;SDS011;5042;42.626;23.382;2023-07-02T10:13:58;5.90;;;3.88;;
10005;SDS011;5042;42.626;23.382;2023-07-02T10:16:25;4.90;;;3.85;;
10005;SDS011;5042;42.626;23.382;2023-07-02T10:18:52;4.47;;;4.00;;
10005;SDS011;5042;42.626;23.382;2023-07-02T10:21:19;5.13;;;3.70;;
10005;SDS011;5042;42.626;23.382;2023-07-02T10:23:46;4.65;;;3.95;;
10005;SDS011;5042;42.626;23.382;2023-07-02T10:26:13;4.65;;;3.72;;
10005;SDS011;5042;42.626;23.382;2023-07-02T10:28:43;5.47;;;4.18;;
10005;SDS011;5042;42.626;23.382;2023-07-02T10:31:21;4.47;;;3.88;;
10005;SDS011;5042;42.626;23.382;2023-07-02T10:33:48;5.22;;;4.10;;
10005;SDS011;5042;42.626;23.382;2023-07-02T10:36:19;6.93;;;4.28;;
10005;SDS011;5042;42.626;23.382;2023-07-02T10:38:47;4.57;;;3.72;;
10005;SDS011;5042;42.626;23.382;2023-07-02T10:41:22;5.05;;;3.70;;
10005;SDS011;5042;42.626;23.382;2023-07-02T10:43:52;3.70;;;3.35;;
10005;SDS011;5042;42.626;23.382;2023-07-02T10:46:19;4.75;;;3.17;;
10005;SDS011;5042;42.626;23.382;2023-07-02T10:48:52;4.80;;;3.60;;
10005;SDS011;5042;42.626;23.382;2023-07-02T10:51:19;4.47;;;3.58;;
10005;SDS011;5042;42.626;23.382;2023-07-02T10:53:55;5.30;;;3.58;;
10005;SDS011;5042;42.626;23.382;2023-07-02T10:56:23;3.95;;;3.15;;
10005;SDS011;5042;42.626;23.382;2023-07-02T10:58:52;4.18;;;3.22;;
10005;SDS011;5042;42.626;23.382;2023-07-02T11:01:22;4.03;;;3.63;;
10005;SDS011;5042;42.626;23.382;2023-07-02T11:03:55;4.25;;;3.50;;
10005;SDS011;5042;42.626;23.382;2023-07-02T11:06:23;3.83;;;3.40;;
10005;SDS011;5042;42.626;23.382;2023-07-02T11:08:50;4.13;;;3.13;;
10005;SDS011;5042;42.626;23.382;2023-07-02T11:11:17;3.45;;;3.15;;
10005;SDS011;5042;42.626;23.382;2023-07-02T11:13:44;3.80;;;3.03;;
10005;SDS011;5042;42.626;23.382;2023-07-02T11:16:20;4.45;;;3.13;;
10005;SDS011;5042;42.626;23.382;2023-07-02T11:18:49;3.65;;;3.10;;
10005;SDS011;5042;42.626;23.382;2023-07-02T11:21:16;5.18;;;3.63;;
10005;SDS011;5042;42.626;23.382;2023-07-02T11:23:43;5.07;;;3.47;;
10005;SDS011;5042;42.626;23.382;2023-07-02T11:26:10;3.30;;;3.00;;
10005;SDS011;5042;42.626;23.382;2023-07-02T11:28:47;3.30;;;3.00;;
10005;SDS011;5042;42.626;23.382;2023-07-02T11:31:14;3.95;;;3.15;;
10005;SDS011;5042;42.626;23.382;2023-07-02T11:33:52;6.07;;;3.47;;
10005;SDS011;5042;42.626;23.382;2023-07-02T11:36:20;3.58;;;2.60;;
10005;SDS011;5042;42.626;23.382;2023-07-02T11:38:48;6.10;;;3.47;;
10005;SDS011;5042;42.626;23.382;2023-07-02T11:41:16;5.75;;;3.63;;
10005;SDS011;5042;42.626;23.382;2023-07-02T11:43:44;5.22;;;3.58;;
10005;SDS011;5042;42.626;23.382;2023-07-02T11:46:10;4.32;;;3.65;;
10005;SDS011;5042;42.626;23.382;2023-07-02T11:48:39;4.20;;;3.28;;
10005;SDS011;5042;42.626;23.382;2023-07-02T11:51:05;5.38;;;3.72;;
10005;SDS011;5042;42.626;23.382;2023-07-02T11:53:32;4.25;;;3.55;;
10005;SDS011;5042;42.626;23.382;2023-07-02T11:55:59;8.55;;;3.42;;
10005;SDS011;5042;42.626;23.382;2023-07-02T11:58:25;5.13;;;3.47;;
10005;SDS011;5042;42.626;23.382;2023-07-02T12:00:52;4.45;;;3.15;;
10005;SDS011;5042;42.626;23.382;2023-07-02T12:03:19;3.03;;;2.72;;
10005;SDS011;5042;42.626;23.382;2023-07-02T12:05:47;3.70;;;3.03;;
10005;SDS011;5042;42.626;23.382;2023-07-02T12:08:14;3.40;;;2.55;;
10005;SDS011;5042;42.626;23.382;2023-07-02T12:10:41;3.95;;;2.80;;
10005;SDS011;5042;42.626;23.382;2023-07-02T12:13:07;2.80;;;2.45;;
10005;SDS011;5042;42.626;23.382;2023-07-02T12:15:34;3.65;;;2.72;;
10005;SDS011;5042;42.626;23.382;2023-07-02T12:18:01;3.28;;;2.70;;
10005;SDS011;5042;42.626;23.382;2023-07-02T12:20:28;2.80;;;2.60;;
10005;SDS011;5042;42.626;23.382;2023-07-02T12:22:56;2.97;;;2.70;;
10005;SDS011;5042;42.626;23.382;2023-07-02T12:25:23;3.78;;;2.60;;
10005;SDS011;5042;42.626;23.382;2023-07-02T12:27:50;3.58;;;2.08;;
10005;SDS011;5042;42.626;23.382;2023-07-02T12:30:16;3.22;;;2.15;;
10005;SDS011;5042;42.626;23.382;2023-07-02T12:32:43;2.60;;;2.40;;
10005;SDS011;5042;42.626;23.382;2023-07-02T12:35:11;4.32;;;2.58;;
10005;SDS011;5042;42.626;23.382;2023-07-02T12:37:42;2.97;;;2.58;;
10005;SDS011;5042;42.626;23.382;2023-07-02T12:40:11;3.47;;;2.38;;
10005;SDS011;5042;42.626;23.382;2023-07-02T12:42:38;4.75;;;2.60;;
10005;SDS011;5042;42.626;23.382;2023-07-02T12:45:05;2.63;;;2.40;;
10005;SDS011;5042;42.626;23.382;2023-07-02T12:47:33;2.97;;;2.42;;
10005;SDS011;5042;42.626;23.382;2023-07-02T12:49:59;2.40;;;2.15;;
10005;SDS011;5042;42.626;23.382;2023-07-02T12:52:27;3.17;;;2.60;;
10005;SDS011;5042;42.626;23.382;2023-07-02T12:54:54;3.40;;;2.70;;
10005;SDS011;5042;42.626;23.382;2023-07-02T12:57:22;3.80;;;2.60;;
10005;SDS011;5042;42.626;23.382;2023-07-02T12:59:51;3.70;;;2.85;;
10005;SDS011;5042;42.626;23.382;2023-07-02T13:02:18;3.35;;;2.50;;
10005;SDS011;5042;42.626;23.382;2023-07-02T13:04:45;3.30;;;2.60;;
10005;SDS011;5042;42.626;23.382;2023-07-02T13:07:11;4.43;;;2.80;;
10005;SDS011;5042;42.626;23.382;2023-07-02T13:09:38;4.95;;;2.97;;
10005;SDS011;5042;42.626;23.382;2023-07-02T13:12:05;4.82;;;2.83;;
10005;SDS011;5042;42.626;23.382;2023-07-02T13:14:34;3.10;;;2.80;;
10005;SDS011;5042;42.626;23.382;2023-07-02T13:17:01;3.22;;;2.92;;
10005;SDS011;5042;42.626;23.382;2023-07-02T13:19:30;5.43;;;3.22;;
10005;SDS011;5042;42.626;23.382;2023-07-02T13:21:57;3.67;;;2.90;;
10005;SDS011;5042;42.626;23.382;2023-07-02T13:24:24;3.40;;;2.90;;
10005;SDS011;5042;42.626;23.382;2023-07-02T13:26:51;3.50;;;2.80;;
10005;SDS011;5042;42.626;23.382;2023-07-02T13:29:18;2.92;;;2.63;;
10005;SDS011;5042;42.626;23.382;2023-07-02T13:31:46;3.58;;;2.50;;
10005;SDS011;5042;42.626;23.382;2023-07-02T13:34:12;5.13;;;2.53;;
10005;SDS011;5042;42.626;23.382;2023-07-02T13:36:39;3.75;;;2.88;;
10005;SDS011;5042;42.626;23.382;2023-07-02T13:39:06;3.60;;;2.92;;
10005;SDS011;5042;42.626;23.382;2023-07-02T13:41:33;4.25;;;2.53;;
10005;SDS011;5042;42.626;23.382;2023-07-02T13:44:00;2.97;;;2.55;;
10005;SDS011;5042;42.626;23.382;2023-07-02T13:46:27;3.92;;;2.95;;
10005;SDS011;5042;42.626;23.382;2023-07-02T13:48:55;3.78;;;2.78;;
10005;SDS011;5042;42.626;23.382;2023-07-02T13:51:21;3.90;;;2.60;;
10005;SDS011;5042;42.626;23.382;2023-07-02T13:53:48;5.55;;;2.88;;
10005;SDS011;5042;42.626;23.382;2023-07-02T13:56:15;3.85;;;3.10;;
10005;SDS011;5042;42.626;23.382;2023-07-02T14:01:13;4.05;;;2.92;;
10005;SDS011;5042;42.626;23.382;2023-07-02T14:03:40;4.15;;;2.97;;
10005;SDS011;5042;42.626;23.382;2023-07-02T14:06:06;4.30;;;3.17;;
10005;SDS011;5042;42.626;23.382;2023-07-02T14:08:34;14.10;;;3.33;;
10005;SDS011;5042;42.626;23.382;2023-07-02T14:11:01;5.00;;;3.22;;
10005;SDS011;5042;42.626;23.382;2023-07-02T14:13:28;4.53;;;2.97;;
10005;SDS011;5042;42.626;23.382;2023-07-02T14:15:55;3.92;;;3.00;;
10005;SDS011;5042;42.626;23.382;2023-07-02T14:18:23;5.03;;;3.38;;
10005;SDS011;5042;42.626;23.382;2023-07-02T14:20:50;4.70;;;3.33;;
10005;SDS011;5042;42.626;23.382;2023-07-02T14:23:17;3.97;;;3.30;;
10005;SDS011;5042;42.626;23.382;2023-07-02T14:25:44;4.97;;;3.65;;
10005;SDS011;5042;42.626;23.382;2023-07-02T14:28:10;6.38;;;3.15;;
10005;SDS011;5042;42.626;23.382;2023-07-02T14:30:37;5.00;;;3.13;;
10005;SDS011;5042;42.626;23.382;2023-07-02T14:33:05;6.15;;;3.60;;
10005;SDS011;5042;42.626;23.382;2023-07-02T14:35:33;4.05;;;3.20;;
10005;SDS011;5042;42.626;23.382;2023-07-02T14:38:01;3.90;;;3.28;;
10005;SDS011;5042;42.626;23.382;2023-07-02T14:40:27;3.38;;;3.05;;
10005;SDS011;5042;42.626;23.382;2023-07-02T14:42:54;4.45;;;3.40;;
10005;SDS011;5042;42.626;23.382;2023-07-02T14:45:21;5.07;;;3.50;;
10005;SDS011;5042;42.626;23.382;2023-07-02T14:47:47;4.35;;;3.38;;
10005;SDS011;5042;42.626;23.382;2023-07-02T14:50:14;4.82;;;3.60;;
10005;SDS011;5042;42.626;23.382;2023-07-02T14:52:43;5.07;;;3.90;;